Time,TemperatureF,DewpointF,PressureIn,WindDirection,WindDirectionDegrees,WindSpeedMPH,WindSpeedGustMPH,Humidity,HourlyPrecipIn,Conditions,Clouds,dailyrainin,SoftwareType,DateUTC
2013-08-04 00:12:00,76.0,75.0,-100.00,West,264,0.0,0.0,98,0.00,,,0.00,,2013-08-04 05:12:00,
2013-08-04 00:22:00,76.0,75.0,-100.00,West,264,0.0,0.0,98,0.00,,,0.00,,2013-08-04 05:22:00,
2013-08-04 00:32:00,76.0,75.0,-100.00,West,264,0.0,0.0,98,0.00,,,0.00,,2013-08-04 05:32:00,
2013-08-04 00:42:00,76.0,75.0,-100.00,West,264,0.0,0.0,98,0.00,,,0.00,,2013-08-04 05:42:00,
2013-08-04 01:12:00,76.0,75.0,-100.00,WNW,298,1.0,2.0,98,0.00,,,0.00,,2013-08-04 06:12:00,
2013-08-04 01:22:00,76.0,75.0,-100.00,WNW,298,1.0,2.0,98,0.00,,,0.00,,2013-08-04 06:22:00,
2013-08-04 01:32:00,76.0,75.0,-100.00,WNW,298,1.0,2.0,98,0.00,,,0.00,,2013-08-04 06:32:00,
2013-08-04 01:43:00,76.0,75.0,-100.00,WNW,298,1.0,2.0,98,0.00,,,0.00,,2013-08-04 06:43:00,
2013-08-04 02:12:00,77.0,76.0,-100.00,NW,324,1.0,4.0,98,0.00,,,0.00,,2013-08-04 07:12:00,
2013-08-04 02:22:00,77.0,76.0,-100.00,NW,324,1.0,4.0,98,0.00,,,0.00,,2013-08-04 07:22:00,
2013-08-04 02:33:00,77.0,76.0,-100.00,NW,324,1.0,4.0,98,0.00,,,0.00,,2013-08-04 07:33:00,
2013-08-04 02:43:00,77.0,76.0,-100.00,NW,324,1.0,4.0,98,0.00,,,0.00,,2013-08-04 07:43:00,
2013-08-04 03:12:00,77.0,75.0,-100.00,NW,313,2.0,4.0,94,0.00,,,0.00,,2013-08-04 08:12:00,
2013-08-04 03:23:00,77.0,75.0,-100.00,NW,313,2.0,4.0,94,0.00,,,0.00,,2013-08-04 08:23:00,
2013-08-04 03:33:00,77.0,75.0,-100.00,NW,313,2.0,4.0,94,0.00,,,0.00,,2013-08-04 08:33:00,
2013-08-04 03:43:00,77.0,75.0,-100.00,NW,313,2.0,4.0,94,0.00,,,0.00,,2013-08-04 08:43:00,
2013-08-04 04:12:00,76.0,75.0,-100.00,WNW,287,0.0,2.0,96,0.00,,,0.00,,2013-08-04 09:12:00,
2013-08-04 04:22:00,76.0,75.0,-100.00,WNW,287,0.0,2.0,96,0.00,,,0.00,,2013-08-04 09:22:00,
2013-08-04 04:32:00,76.0,75.0,-100.00,WNW,287,0.0,2.0,96,0.00,,,0.00,,2013-08-04 09:32:00,
2013-08-04 04:43:00,76.0,75.0,-100.00,WNW,287,0.0,2.0,96,0.00,,,0.00,,2013-08-04 09:43:00,
2013-08-04 05:12:00,74.0,73.0,-100.00,NW,313,0.0,0.0,98,0.00,,,0.00,,2013-08-04 10:12:00,
2013-08-04 05:22:00,74.0,73.0,-100.00,NW,313,0.0,0.0,98,0.00,,,0.00,,2013-08-04 10:22:00,
2013-08-04 05:32:00,74.0,73.0,-100.00,NW,313,0.0,0.0,98,0.00,,,0.00,,2013-08-04 10:32:00,
2013-08-04 05:43:00,74.0,73.0,-100.00,NW,313,0.0,0.0,98,0.00,,,0.00,,2013-08-04 10:43:00,
2013-08-04 06:12:00,73.0,72.0,-100.00,WNW,295,0.0,0.0,98,0.00,,,0.00,,2013-08-04 11:12:00,
2013-08-04 06:22:00,73.0,72.0,-100.00,WNW,295,0.0,0.0,98,0.00,,,0.00,,2013-08-04 11:22:00,
2013-08-04 06:32:00,73.0,72.0,-100.00,WNW,295,0.0,0.0,98,0.00,,,0.00,,2013-08-04 11:32:00,
2013-08-04 06:42:00,73.0,72.0,-100.00,WNW,295,0.0,0.0,98,0.00,,,0.00,,2013-08-04 11:42:00,
2013-08-04 07:12:00,74.0,73.0,-100.00,NNW,330,0.0,0.0,98,0.00,,,0.00,,2013-08-04 12:12:00,
2013-08-04 07:22:00,74.0,73.0,-100.00,NNW,330,0.0,0.0,98,0.00,,,0.00,,2013-08-04 12:22:00,
2013-08-04 07:32:00,74.0,73.0,-100.00,NNW,330,0.0,0.0,98,0.00,,,0.00,,2013-08-04 12:32:00,
2013-08-04 07:43:00,74.0,73.0,-100.00,NNW,330,0.0,0.0,98,0.00,,,0.00,,2013-08-04 12:43:00,
2013-08-04 08:12:00,78.0,78.0,-100.00,NW,310,2.0,5.0,99,0.00,,,0.00,,2013-08-04 13:12:00,
2013-08-04 08:22:00,78.0,78.0,-100.00,NW,310,2.0,5.0,99,0.00,,,0.00,,2013-08-04 13:22:00,
2013-08-04 08:32:00,78.0,78.0,-100.00,NW,310,2.0,5.0,99,0.00,,,0.00,,2013-08-04 13:32:00,
2013-08-04 08:43:00,78.0,78.0,-100.00,NW,310,2.0,5.0,99,0.00,,,0.00,,2013-08-04 13:43:00,
2013-08-04 09:12:00,86.0,80.0,-100.00,NW,310,2.0,6.0,83,0.00,,,0.00,,2013-08-04 14:12:00,
2013-08-04 09:22:00,86.0,80.0,-100.00,NW,310,2.0,6.0,83,0.00,,,0.00,,2013-08-04 14:22:00,
2013-08-04 09:32:00,86.0,80.0,-100.00,NW,310,2.0,6.0,83,0.00,,,0.00,,2013-08-04 14:32:00,
2013-08-04 09:43:00,86.0,80.0,-100.00,NW,310,2.0,6.0,83,0.00,,,0.00,,2013-08-04 14:43:00,
2013-08-04 10:12:00,89.0,77.0,-100.00,WNW,302,4.0,7.0,68,0.00,,,0.00,,2013-08-04 15:12:00,
2013-08-04 10:22:00,89.0,77.0,-100.00,WNW,302,4.0,7.0,68,0.00,,,0.00,,2013-08-04 15:22:00,
2013-08-04 10:32:00,89.0,77.0,-100.00,WNW,302,4.0,7.0,68,0.00,,,0.00,,2013-08-04 15:32:00,
2013-08-04 10:42:00,89.0,77.0,-100.00,WNW,302,4.0,7.0,68,0.00,,,0.00,,2013-08-04 15:42:00,
2013-08-04 11:12:00,93.0,76.0,-100.00,NW,306,4.0,10.0,58,0.00,,,0.00,,2013-08-04 16:12:00,
2013-08-04 11:22:00,93.0,76.0,-100.00,NW,306,4.0,10.0,58,0.00,,,0.00,,2013-08-04 16:22:00,
2013-08-04 11:33:00,93.0,76.0,-100.00,NW,306,4.0,10.0,58,0.00,,,0.00,,2013-08-04 16:33:00,
2013-08-04 11:42:00,93.0,76.0,-100.00,NW,306,4.0,10.0,58,0.00,,,0.00,,2013-08-04 16:42:00,
2013-08-04 12:12:00,94.0,75.0,-100.00,NW,305,3.0,9.0,55,0.00,,,0.00,,2013-08-04 17:12:00,
2013-08-04 12:22:00,94.0,75.0,-100.00,NW,305,3.0,9.0,55,0.00,,,0.00,,2013-08-04 17:22:00,
2013-08-04 12:32:00,94.0,75.0,-100.00,NW,305,3.0,9.0,55,0.00,,,0.00,,2013-08-04 17:32:00,
2013-08-04 12:43:00,94.0,75.0,-100.00,NW,305,3.0,9.0,55,0.00,,,0.00,,2013-08-04 17:43:00,
2013-08-04 14:12:00,98.0,77.0,-100.00,North,353,2.0,11.0,52,0.00,,,0.00,,2013-08-04 19:12:00,
2013-08-04 14:22:00,98.0,77.0,-100.00,North,353,2.0,11.0,52,0.00,,,0.00,,2013-08-04 19:22:00,
2013-08-04 14:33:00,98.0,77.0,-100.00,North,353,2.0,11.0,52,0.00,,,0.00,,2013-08-04 19:33:00,
2013-08-04 14:43:00,98.0,77.0,-100.00,North,353,2.0,11.0,52,0.00,,,0.00,,2013-08-04 19:43:00,
2013-08-04 15:12:00,98.0,77.0,-100.00,NW,306,4.0,9.0,51,0.00,,,0.00,,2013-08-04 20:12:00,
2013-08-04 15:22:00,98.0,77.0,-100.00,NW,306,4.0,9.0,51,0.00,,,0.00,,2013-08-04 20:22:00,
2013-08-04 15:33:00,98.0,77.0,-100.00,NW,306,4.0,9.0,51,0.00,,,0.00,,2013-08-04 20:33:00,
2013-08-04 15:43:00,98.0,77.0,-100.00,NW,306,4.0,9.0,51,0.00,,,0.00,,2013-08-04 20:43:00,
2013-08-04 16:12:00,97.0,77.0,-100.00,NNE,32,1.0,7.0,53,0.00,,,0.00,,2013-08-04 21:12:00,
2013-08-04 16:22:00,97.0,77.0,-100.00,NNE,32,1.0,7.0,53,0.00,,,0.00,,2013-08-04 21:22:00,
2013-08-04 16:32:00,97.0,77.0,-100.00,NNE,32,1.0,7.0,53,0.00,,,0.00,,2013-08-04 21:32:00,
2013-08-04 16:43:00,97.0,77.0,-100.00,NNE,32,1.0,7.0,53,0.00,,,0.00,,2013-08-04 21:43:00,
2013-08-04 17:12:00,98.0,74.0,-100.00,ENE,61,2.0,9.0,47,0.00,,,0.00,,2013-08-04 22:12:00,
2013-08-04 17:22:00,98.0,74.0,-100.00,ENE,61,2.0,9.0,47,0.00,,,0.00,,2013-08-04 22:22:00,
2013-08-04 17:32:00,98.0,74.0,-100.00,ENE,61,2.0,9.0,47,0.00,,,0.00,,2013-08-04 22:32:00,
2013-08-04 17:43:00,98.0,74.0,-100.00,ENE,61,2.0,9.0,47,0.00,,,0.00,,2013-08-04 22:43:00,
2013-08-04 18:12:00,87.0,71.0,-100.00,NW,305,4.0,7.0,60,0.00,,,0.00,,2013-08-04 23:12:00,
2013-08-04 18:22:00,87.0,71.0,-100.00,NW,305,4.0,7.0,60,0.00,,,0.00,,2013-08-04 23:22:00,
2013-08-04 18:32:00,87.0,71.0,-100.00,NW,305,4.0,7.0,60,0.00,,,0.00,,2013-08-04 23:32:00,
2013-08-04 18:43:00,87.0,71.0,-100.00,NW,305,4.0,7.0,60,0.00,,,0.00,,2013-08-04 23:43:00,
2013-08-04 19:12:00,86.0,72.0,-100.00,ESE,105,1.0,6.0,64,0.00,,,0.00,,2013-08-05 00:12:00,
2013-08-04 19:22:00,86.0,72.0,-100.00,ESE,105,1.0,6.0,64,0.00,,,0.00,,2013-08-05 00:22:00,
2013-08-04 19:33:00,86.0,72.0,-100.00,ESE,105,1.0,6.0,64,0.00,,,0.00,,2013-08-05 00:33:00,
2013-08-04 19:42:00,86.0,72.0,-100.00,ESE,105,1.0,6.0,64,0.00,,,0.00,,2013-08-05 00:42:00,
2013-08-04 20:12:00,81.0,74.0,-100.00,NNW,332,0.0,2.0,79,0.00,,,0.00,,2013-08-05 01:12:00,
2013-08-04 20:22:00,81.0,74.0,-100.00,NNW,332,0.0,2.0,79,0.00,,,0.00,,2013-08-05 01:22:00,
2013-08-04 20:33:00,81.0,74.0,-100.00,NNW,332,0.0,2.0,79,0.00,,,0.00,,2013-08-05 01:33:00,
2013-08-04 20:42:00,81.0,74.0,-100.00,NNW,332,0.0,2.0,79,0.00,,,0.00,,2013-08-05 01:42:00,
2013-08-04 21:12:00,77.0,74.0,-100.00,West,278,0.0,0.0,91,0.00,,,0.00,,2013-08-05 02:12:00,
2013-08-04 21:22:00,77.0,74.0,-100.00,West,278,0.0,0.0,91,0.00,,,0.00,,2013-08-05 02:22:00,
2013-08-04 21:33:00,77.0,74.0,-100.00,West,278,0.0,0.0,91,0.00,,,0.00,,2013-08-05 02:33:00,
2013-08-04 21:43:00,77.0,74.0,-100.00,West,278,0.0,0.0,91,0.00,,,0.00,,2013-08-05 02:43:00,
2013-08-04 22:12:00,76.0,75.0,-100.00,SSW,192,0.0,0.0,96,0.00,,,0.00,,2013-08-05 03:12:00,
2013-08-04 22:22:00,76.0,75.0,-100.00,SSW,192,0.0,0.0,96,0.00,,,0.00,,2013-08-05 03:22:00,
2013-08-04 22:32:00,76.0,75.0,-100.00,SSW,192,0.0,0.0,96,0.00,,,0.00,,2013-08-05 03:32:00,
2013-08-04 22:42:00,76.0,75.0,-100.00,SSW,192,0.0,0.0,96,0.00,,,0.00,,2013-08-05 03:42:00,
2013-08-04 23:12:00,75.0,74.0,-100.00,East,96,0.0,0.0,97,0.00,,,0.00,,2013-08-05 04:12:00,
2013-08-04 23:22:00,75.0,74.0,-100.00,East,96,0.0,0.0,97,0.00,,,0.00,,2013-08-05 04:22:00,
2013-08-04 23:32:00,75.0,74.0,-100.00,East,96,0.0,0.0,97,0.00,,,0.00,,2013-08-05 04:32:00,
2013-08-04 23:42:00,75.0,74.0,-100.00,East,96,0.0,0.0,97,0.00,,,0.00,,2013-08-05 04:42:00,